createdAt,value
2018-05-19T00:00:13.867Z,0.00
2018-05-19T00:01:13.741Z,0.00
2018-05-19T00:02:13.612Z,0.00
2018-05-19T00:03:13.485Z,0.00
2018-05-19T00:04:13.361Z,0.00
2018-05-19T00:05:13.235Z,0.00
2018-05-19T00:06:13.106Z,0.00
2018-05-19T00:07:12.979Z,0.00
2018-05-19T00:08:12.853Z,0.00
2018-05-19T00:09:12.725Z,0.00
2018-05-19T00:10:12.601Z,0.00
2018-05-19T00:11:12.476Z,0.00
2018-05-19T00:12:12.344Z,0.00
2018-05-19T00:13:12.218Z,0.00
2018-05-19T00:14:12.090Z,0.00
2018-05-19T00:15:11.964Z,0.00
2018-05-19T00:16:11.838Z,0.00
2018-05-19T00:17:11.709Z,0.00
2018-05-19T00:18:11.583Z,0.00
2018-05-19T00:19:11.460Z,0.00
2018-05-19T00:20:11.331Z,0.00
2018-05-19T00:21:11.206Z,0.00
2018-05-19T00:22:11.077Z,0.00
2018-05-19T00:23:10.953Z,0.00
2018-05-19T00:24:10.826Z,0.00
2018-05-19T00:25:10.697Z,0.00
2018-05-19T00:26:10.570Z,0.00
2018-05-19T00:27:10.442Z,0.00
2018-05-19T00:28:10.318Z,0.00
2018-05-19T00:29:10.189Z,0.00
2018-05-19T00:30:10.062Z,0.00
2018-05-19T00:31:09.936Z,0.00
2018-05-19T00:32:09.808Z,0.00
2018-05-19T00:33:09.682Z,0.00
2018-05-19T00:34:09.556Z,0.00
2018-05-19T00:35:09.430Z,0.00
2018-05-19T00:36:09.304Z,0.00
2018-05-19T00:37:09.172Z,0.00
2018-05-19T00:38:09.049Z,0.00
2018-05-19T00:39:08.947Z,0.00
2018-05-19T00:40:08.796Z,0.00
2018-05-19T00:41:08.668Z,0.00
2018-05-19T00:42:08.539Z,0.00
2018-05-19T00:43:08.413Z,0.00
2018-05-19T00:44:08.284Z,0.00
2018-05-19T00:45:08.159Z,0.00
2018-05-19T00:46:08.038Z,0.00
2018-05-19T00:47:07.904Z,0.00
2018-05-19T00:48:07.777Z,0.00
2018-05-19T00:49:07.652Z,0.00
2018-05-19T00:50:07.530Z,0.00
2018-05-19T00:51:07.396Z,0.00
2018-05-19T00:52:07.272Z,0.00
2018-05-19T00:53:07.143Z,0.00
2018-05-19T00:54:07.016Z,0.00
2018-05-19T00:55:06.889Z,0.00
2018-05-19T00:56:06.763Z,0.00
2018-05-19T00:57:06.635Z,0.00
2018-05-19T00:58:06.512Z,0.00
2018-05-19T00:59:06.383Z,0.00
2018-05-19T01:00:06.257Z,0.00
2018-05-19T01:01:06.130Z,0.00
2018-05-19T01:02:06.002Z,0.00
2018-05-19T01:03:05.874Z,0.00
2018-05-19T01:04:05.750Z,0.00
2018-05-19T01:05:05.620Z,0.00
2018-05-19T01:06:05.493Z,0.00
2018-05-19T01:07:05.367Z,0.00
2018-05-19T01:08:05.241Z,0.00
2018-05-19T01:09:05.113Z,0.00
2018-05-19T01:10:04.989Z,0.00
2018-05-19T01:11:04.857Z,0.00
2018-05-19T01:12:04.735Z,0.00
2018-05-19T01:13:04.604Z,0.00
2018-05-19T01:14:04.477Z,0.00
2018-05-19T01:15:04.352Z,0.00
2018-05-19T01:16:04.223Z,0.00
2018-05-19T01:17:04.096Z,0.00
2018-05-19T01:18:03.970Z,0.00
2018-05-19T01:19:03.844Z,0.00
2018-05-19T01:20:03.716Z,0.00
2018-05-19T01:21:03.588Z,0.00
2018-05-19T01:22:03.464Z,0.00
2018-05-19T01:23:03.337Z,0.00
2018-05-19T01:24:03.235Z,0.00
2018-05-19T01:25:03.082Z,0.00
2018-05-19T01:26:02.953Z,0.00
2018-05-19T01:27:02.828Z,0.00
2018-05-19T01:28:02.699Z,0.00
2018-05-19T01:29:02.575Z,0.00
2018-05-19T01:30:02.446Z,0.00
2018-05-19T01:31:02.319Z,0.00
2018-05-19T01:32:02.193Z,0.00
2018-05-19T01:33:02.067Z,0.00
2018-05-19T01:34:01.939Z,0.00
2018-05-19T01:35:01.815Z,0.00
2018-05-19T01:36:01.688Z,0.00
2018-05-19T01:37:01.561Z,0.00
2018-05-19T01:38:01.433Z,0.00
2018-05-19T01:39:01.307Z,0.00
2018-05-19T01:40:01.179Z,0.00
2018-05-19T01:41:01.049Z,0.00
2018-05-19T01:42:00.926Z,0.00
2018-05-19T01:43:00.799Z,0.00
2018-05-19T01:44:00.670Z,0.00
2018-05-19T01:45:00.545Z,0.00
2018-05-19T01:46:00.417Z,0.00
2018-05-19T01:47:00.292Z,0.00
2018-05-19T01:48:00.165Z,0.00
2018-05-19T01:49:00.037Z,0.00
2018-05-19T01:49:59.909Z,0.00
2018-05-19T01:50:59.783Z,0.00
2018-05-19T01:51:59.658Z,0.00
2018-05-19T01:52:59.529Z,0.00
2018-05-19T01:53:59.402Z,0.00
2018-05-19T01:54:59.275Z,0.00
2018-05-19T01:55:59.147Z,0.00
2018-05-19T01:56:59.021Z,0.00
2018-05-19T01:57:58.895Z,0.00
2018-05-19T01:58:58.767Z,0.00
2018-05-19T01:59:58.649Z,0.00
2018-05-19T02:00:58.513Z,0.00
2018-05-19T02:01:58.387Z,0.00
2018-05-19T02:02:58.269Z,0.00
2018-05-19T02:03:58.134Z,0.00
2018-05-19T02:04:58.010Z,0.00
2018-05-19T02:05:57.932Z,0.00
2018-05-19T02:06:57.755Z,0.00
2018-05-19T02:07:57.629Z,0.00
2018-05-19T02:08:57.500Z,0.00
2018-05-19T02:09:57.373Z,0.00
2018-05-19T02:10:57.248Z,0.00
2018-05-19T02:11:57.122Z,0.00
2018-05-19T02:12:56.994Z,0.00
2018-05-19T02:13:56.869Z,0.00
2018-05-19T02:14:56.743Z,0.00
2018-05-19T02:15:56.615Z,0.00
2018-05-19T02:16:56.490Z,0.00
2018-05-19T02:17:56.411Z,0.00
2018-05-19T02:18:56.238Z,0.00
2018-05-19T02:19:56.109Z,0.00
2018-05-19T02:20:55.982Z,0.00
2018-05-19T02:21:55.860Z,0.00
2018-05-19T02:22:55.734Z,0.00
2018-05-19T02:23:55.605Z,0.00
2018-05-19T02:24:55.478Z,0.00
2018-05-19T02:25:55.351Z,0.00
2018-05-19T02:26:55.228Z,0.00
2018-05-19T02:27:55.097Z,0.00
2018-05-19T02:28:54.971Z,0.00
2018-05-19T02:29:54.846Z,0.00
2018-05-19T02:30:54.721Z,0.00
2018-05-19T02:31:54.594Z,0.00
2018-05-19T02:32:54.467Z,0.00
2018-05-19T02:33:54.340Z,0.00
2018-05-19T02:34:54.212Z,0.00
2018-05-19T02:35:54.089Z,0.00
2018-05-19T02:36:53.959Z,0.00
2018-05-19T02:37:53.834Z,0.00
2018-05-19T02:38:53.710Z,0.00
2018-05-19T02:39:53.589Z,0.00
2018-05-19T02:40:53.453Z,0.00
2018-05-19T02:41:53.328Z,0.00
2018-05-19T02:42:53.199Z,0.00
2018-05-19T02:43:53.072Z,0.00
2018-05-19T02:44:52.942Z,0.00
2018-05-19T02:45:52.817Z,0.00
2018-05-19T02:46:52.691Z,0.00
2018-05-19T02:47:52.565Z,0.00
2018-05-19T02:48:52.436Z,0.00
2018-05-19T02:49:52.307Z,0.00
2018-05-19T02:50:52.181Z,0.00
2018-05-19T02:51:52.057Z,0.00
2018-05-19T02:52:51.928Z,0.00
2018-05-19T02:53:51.802Z,0.00
2018-05-19T02:54:51.677Z,0.00
2018-05-19T02:55:51.551Z,0.00
2018-05-19T02:56:51.422Z,0.00
2018-05-19T02:57:51.297Z,0.00
2018-05-19T02:58:51.167Z,0.00
2018-05-19T02:59:51.042Z,0.00
2018-05-19T03:00:50.917Z,0.00
2018-05-19T03:01:50.788Z,0.00
2018-05-19T03:02:50.660Z,0.00
2018-05-19T03:03:50.536Z,0.00
2018-05-19T03:04:50.406Z,0.00
2018-05-19T03:05:50.280Z,0.00
2018-05-19T03:06:50.159Z,0.00
2018-05-19T03:07:50.043Z,0.00
2018-05-19T03:08:49.899Z,0.00
2018-05-19T03:09:49.776Z,0.00
2018-05-19T03:10:49.648Z,0.00
2018-05-19T03:11:49.521Z,0.00
2018-05-19T03:12:49.393Z,0.00
2018-05-19T03:13:49.269Z,0.00
2018-05-19T03:14:49.143Z,0.00
2018-05-19T03:15:49.015Z,0.00
2018-05-19T03:16:48.890Z,0.00
2018-05-19T03:17:48.765Z,0.00
2018-05-19T03:18:48.634Z,0.00
2018-05-19T03:19:48.510Z,0.00
2018-05-19T03:20:48.383Z,0.00
2018-05-19T03:21:48.256Z,0.00
2018-05-19T03:22:48.130Z,0.00
2018-05-19T03:23:48.002Z,0.00
2018-05-19T03:24:47.877Z,0.00
2018-05-19T03:25:47.750Z,0.00
2018-05-19T03:26:47.624Z,0.00
2018-05-19T03:27:47.498Z,0.00
2018-05-19T03:28:47.370Z,0.00
2018-05-19T03:29:47.246Z,0.00
2018-05-19T03:30:47.120Z,0.00
2018-05-19T03:31:46.997Z,0.00
2018-05-19T03:32:46.868Z,0.00
2018-05-19T03:33:46.739Z,0.00
2018-05-19T03:34:46.613Z,0.00
2018-05-19T03:35:46.487Z,0.00
2018-05-19T03:36:46.359Z,0.00
2018-05-19T03:37:46.234Z,0.00
2018-05-19T03:38:46.106Z,0.00
2018-05-19T03:39:45.979Z,0.00
2018-05-19T03:40:45.854Z,0.00
2018-05-19T03:41:45.727Z,0.00
2018-05-19T03:42:45.602Z,0.00
2018-05-19T03:43:45.474Z,0.00
2018-05-19T03:44:45.343Z,0.00
2018-05-19T03:45:45.221Z,0.00
2018-05-19T03:46:45.093Z,0.00
2018-05-19T03:47:44.966Z,5.63
2018-05-19T03:48:44.841Z,5.63
2018-05-19T03:49:44.714Z,5.63
2018-05-19T03:50:44.583Z,5.63
2018-05-19T03:51:44.459Z,5.63
2018-05-19T03:52:44.331Z,5.63
2018-05-19T03:53:44.205Z,5.63
2018-05-19T03:54:44.084Z,5.63
2018-05-19T03:55:43.953Z,5.63
2018-05-19T03:56:43.823Z,5.63
2018-05-19T03:57:43.700Z,5.63
2018-05-19T03:58:43.572Z,11.25
2018-05-19T03:59:43.447Z,11.25
2018-05-19T04:00:43.321Z,11.25
2018-05-19T04:01:43.194Z,11.25
2018-05-19T04:02:43.066Z,11.25
2018-05-19T04:03:42.939Z,11.25
2018-05-19T04:04:42.812Z,11.25
2018-05-19T04:05:42.689Z,16.88
2018-05-19T04:06:42.566Z,16.88
2018-05-19T04:07:42.441Z,16.88
2018-05-19T04:08:42.305Z,16.88
2018-05-19T04:09:42.179Z,16.88
2018-05-19T04:10:42.054Z,16.88
2018-05-19T04:11:41.926Z,22.50
2018-05-19T04:12:41.804Z,22.50
2018-05-19T04:13:41.674Z,22.50
2018-05-19T04:14:41.549Z,22.50
2018-05-19T04:15:41.422Z,22.50
2018-05-19T04:16:41.293Z,22.50
2018-05-19T04:17:41.168Z,22.50
2018-05-19T04:18:41.042Z,22.50
2018-05-19T04:19:40.916Z,22.50
2018-05-19T04:20:40.789Z,22.50
2018-05-19T04:21:40.663Z,28.13
2018-05-19T04:22:40.535Z,28.13
2018-05-19T04:23:40.414Z,28.13
2018-05-19T04:24:40.283Z,28.13
2018-05-19T04:25:40.155Z,28.13
2018-05-19T04:26:40.032Z,28.13
2018-05-19T04:27:39.905Z,28.13
2018-05-19T04:28:39.777Z,28.13
2018-05-19T04:29:39.651Z,28.13
2018-05-19T04:30:39.525Z,28.13
2018-05-19T04:31:39.400Z,33.75
2018-05-19T04:32:39.271Z,33.75
2018-05-19T04:33:39.151Z,39.38
2018-05-19T04:34:39.020Z,39.38
2018-05-19T04:35:38.893Z,39.38
2018-05-19T04:36:38.769Z,39.38
2018-05-19T04:37:38.641Z,39.38
2018-05-19T04:38:38.522Z,45.00
2018-05-19T04:39:38.389Z,45.00
2018-05-19T04:40:38.263Z,45.00
2018-05-19T04:41:38.138Z,45.00
2018-05-19T04:42:38.013Z,45.00
2018-05-19T04:43:37.886Z,45.00
2018-05-19T04:44:37.759Z,45.00
2018-05-19T04:45:37.633Z,45.00
2018-05-19T04:46:37.509Z,45.00
2018-05-19T04:47:37.385Z,50.63
2018-05-19T04:48:37.257Z,50.63
2018-05-19T04:49:37.132Z,56.25
2018-05-19T04:50:37.006Z,56.25
2018-05-19T04:51:36.889Z,56.25
2018-05-19T04:52:36.754Z,61.88
2018-05-19T04:53:36.627Z,61.88
2018-05-19T04:54:36.506Z,61.88
2018-05-19T04:55:36.379Z,61.88
2018-05-19T04:56:36.254Z,61.88
2018-05-19T04:57:36.130Z,61.88
2018-05-19T04:58:36.001Z,61.88
2018-05-19T04:59:35.877Z,61.88
2018-05-19T05:00:35.753Z,61.88
2018-05-19T05:01:35.623Z,61.88
2018-05-19T05:02:35.497Z,61.88
2018-05-19T05:03:35.370Z,61.88
2018-05-19T05:04:35.245Z,56.25
2018-05-19T05:05:35.121Z,56.25
2018-05-19T05:06:34.994Z,56.25
2018-05-19T05:07:34.872Z,56.25
2018-05-19T05:08:34.743Z,61.88
2018-05-19T05:09:34.618Z,61.88
2018-05-19T05:10:34.491Z,67.50
2018-05-19T05:11:34.374Z,67.50
2018-05-19T05:12:34.239Z,67.50
2018-05-19T05:13:34.116Z,73.13
2018-05-19T05:14:33.989Z,73.13
2018-05-19T05:15:33.862Z,73.13
2018-05-19T05:16:33.734Z,73.13
2018-05-19T05:17:33.613Z,78.75
2018-05-19T05:18:33.484Z,78.75
2018-05-19T05:19:33.366Z,78.75
2018-05-19T05:20:33.232Z,84.38
2018-05-19T05:21:33.108Z,84.38
2018-05-19T05:22:32.984Z,84.38
2018-05-19T05:23:32.862Z,84.38
2018-05-19T05:24:32.731Z,84.38
2018-05-19T05:25:32.608Z,84.38
2018-05-19T05:26:32.482Z,90.00
2018-05-19T05:27:32.355Z,90.00
2018-05-19T05:28:32.230Z,90.00
2018-05-19T05:29:32.106Z,90.00
2018-05-19T05:30:31.977Z,95.63
2018-05-19T05:31:31.856Z,95.63
2018-05-19T05:32:31.730Z,95.63
2018-05-19T05:33:31.600Z,95.63
2018-05-19T05:34:31.479Z,95.63
2018-05-19T05:35:31.353Z,101.25
2018-05-19T05:36:31.226Z,101.25
2018-05-19T05:37:31.100Z,106.88
2018-05-19T05:38:30.975Z,106.88
2018-05-19T05:39:30.854Z,106.88
2018-05-19T05:40:30.728Z,106.88
2018-05-19T05:41:30.602Z,101.25
2018-05-19T05:42:30.477Z,101.25
2018-05-19T05:43:30.351Z,101.25
2018-05-19T05:44:30.224Z,101.25
2018-05-19T05:45:30.101Z,101.25
2018-05-19T05:46:29.975Z,106.88
2018-05-19T05:47:29.907Z,106.88
2018-05-19T05:48:29.724Z,106.88
2018-05-19T05:49:29.597Z,106.88
2018-05-19T05:50:29.474Z,112.50
2018-05-19T05:51:29.350Z,106.88
2018-05-19T05:52:29.224Z,112.50
2018-05-19T05:53:29.098Z,112.50
2018-05-19T05:54:28.978Z,112.50
2018-05-19T05:55:28.848Z,112.50
2018-05-19T05:56:28.725Z,112.50
2018-05-19T05:57:28.601Z,112.50
2018-05-19T05:58:28.485Z,112.50
2018-05-19T05:59:28.404Z,112.50
2018-05-19T06:00:28.224Z,118.13
2018-05-19T06:01:28.101Z,118.13
2018-05-19T06:02:27.974Z,123.75
2018-05-19T06:03:27.864Z,118.13
2018-05-19T06:04:27.724Z,118.13
2018-05-19T06:05:27.601Z,118.13
2018-05-19T06:06:27.473Z,112.50
2018-05-19T06:07:27.351Z,112.50
2018-05-19T06:08:27.225Z,112.50
2018-05-19T06:09:27.100Z,112.50
2018-05-19T06:10:26.973Z,118.13
2018-05-19T06:11:26.853Z,118.13
2018-05-19T06:12:26.725Z,123.75
2018-05-19T06:13:26.601Z,135.00
2018-05-19T06:14:26.478Z,135.00
2018-05-19T06:15:26.353Z,140.63
2018-05-19T06:16:26.226Z,146.25
2018-05-19T06:17:26.099Z,146.25
2018-05-19T06:18:25.977Z,146.25
2018-05-19T06:19:25.851Z,146.25
2018-05-19T06:20:25.737Z,151.88
2018-05-19T06:21:25.598Z,151.88
2018-05-19T06:22:25.476Z,157.50
2018-05-19T06:23:25.354Z,157.50
2018-05-19T06:24:25.225Z,163.13
2018-05-19T06:25:25.104Z,163.13
2018-05-19T06:26:24.978Z,163.13
2018-05-19T06:27:24.851Z,163.13
2018-05-19T06:28:24.726Z,168.75
2018-05-19T06:29:24.604Z,168.75
2018-05-19T06:30:24.479Z,168.75
2018-05-19T06:31:24.355Z,174.38
2018-05-19T06:32:24.232Z,174.38
2018-05-19T06:33:24.103Z,180.00
2018-05-19T06:34:23.981Z,180.00
2018-05-19T06:35:23.861Z,180.00
2018-05-19T06:36:23.734Z,180.00
2018-05-19T06:37:23.609Z,174.38
2018-05-19T06:38:23.485Z,168.75
2018-05-19T06:39:23.360Z,168.75
2018-05-19T06:40:23.238Z,163.13
2018-05-19T06:41:23.112Z,157.50
2018-05-19T06:42:22.984Z,157.50
2018-05-19T06:43:22.863Z,151.88
2018-05-19T06:44:22.736Z,151.88
2018-05-19T06:45:22.612Z,146.25
2018-05-19T06:46:22.487Z,140.63
2018-05-19T06:47:22.366Z,135.00
2018-05-19T06:48:22.294Z,135.00
2018-05-19T06:49:22.117Z,129.38
2018-05-19T06:50:21.990Z,129.38
2018-05-19T06:51:21.869Z,129.38
2018-05-19T06:52:21.747Z,129.38
2018-05-19T06:53:21.618Z,129.38
2018-05-19T06:54:21.495Z,135.00
2018-05-19T06:55:21.369Z,135.00
2018-05-19T06:56:21.244Z,135.00
2018-05-19T06:57:21.121Z,135.00
2018-05-19T06:58:20.998Z,135.00
2018-05-19T06:59:20.872Z,140.63
2018-05-19T07:00:20.756Z,140.63
2018-05-19T07:01:20.624Z,146.25
2018-05-19T07:02:20.501Z,157.50
2018-05-19T07:03:20.376Z,163.13
2018-05-19T07:04:20.252Z,174.38
2018-05-19T07:05:20.133Z,185.63
2018-05-19T07:06:20.004Z,196.88
2018-05-19T07:07:19.883Z,202.50
2018-05-19T07:08:19.755Z,208.13
2018-05-19T07:09:19.631Z,208.13
2018-05-19T07:10:19.510Z,213.75
2018-05-19T07:11:19.384Z,213.75
2018-05-19T07:12:19.260Z,219.38
2018-05-19T07:13:19.137Z,219.38
2018-05-19T07:14:19.012Z,219.38
2018-05-19T07:15:18.889Z,225.00
2018-05-19T07:16:18.765Z,225.00
2018-05-19T07:17:18.642Z,225.00
2018-05-19T07:18:18.518Z,225.00
2018-05-19T07:19:18.396Z,225.00
2018-05-19T07:20:18.269Z,225.00
2018-05-19T07:21:18.147Z,225.00
2018-05-19T07:22:18.023Z,225.00
2018-05-19T07:23:17.902Z,230.63
2018-05-19T07:24:17.773Z,230.63
2018-05-19T07:25:17.649Z,236.25
2018-05-19T07:26:17.525Z,241.88
2018-05-19T07:27:17.403Z,247.50
2018-05-19T07:28:17.277Z,258.75
2018-05-19T07:29:17.155Z,253.13
2018-05-19T07:30:17.033Z,258.75
2018-05-19T07:31:16.908Z,258.75
2018-05-19T07:32:16.781Z,264.38
2018-05-19T07:33:16.661Z,270.00
2018-05-19T07:34:16.536Z,270.00
2018-05-19T07:35:16.413Z,275.63
2018-05-19T07:36:16.412Z,281.25
2018-05-19T07:37:16.165Z,286.88
2018-05-19T07:38:16.040Z,292.50
2018-05-19T07:39:15.921Z,298.13
2018-05-19T07:40:15.794Z,298.13
2018-05-19T07:41:15.681Z,298.13
2018-05-19T07:42:15.549Z,298.13
2018-05-19T07:43:15.425Z,292.50
2018-05-19T07:44:15.302Z,292.50
2018-05-19T07:45:15.182Z,292.50
2018-05-19T07:46:15.051Z,286.88
2018-05-19T07:47:14.929Z,281.25
2018-05-19T07:48:14.804Z,270.00
2018-05-19T07:49:14.684Z,270.00
2018-05-19T07:50:14.558Z,270.00
2018-05-19T07:51:14.516Z,275.63
2018-05-19T07:52:14.311Z,281.25
2018-05-19T07:53:14.187Z,281.25
2018-05-19T07:54:14.069Z,281.25
2018-05-19T07:55:13.944Z,292.50
2018-05-19T07:56:13.821Z,275.63
2018-05-19T07:57:13.696Z,270.00
2018-05-19T07:58:13.621Z,275.63
2018-05-19T07:59:13.453Z,281.25
2018-05-19T08:00:13.326Z,275.63
2018-05-19T08:01:13.205Z,270.00
2018-05-19T08:02:13.080Z,270.00
2018-05-19T08:03:12.958Z,270.00
2018-05-19T08:04:12.929Z,264.38
2018-05-19T08:05:12.712Z,258.75
2018-05-19T08:06:12.590Z,253.13
2018-05-19T08:07:12.466Z,241.88
2018-05-19T08:08:12.346Z,236.25
2018-05-19T08:09:12.221Z,225.00
2018-05-19T08:10:12.098Z,225.00
2018-05-19T08:11:11.975Z,230.63
2018-05-19T08:12:11.854Z,236.25
2018-05-19T08:13:11.731Z,236.25
2018-05-19T08:14:11.609Z,236.25
2018-05-19T08:15:11.485Z,236.25
2018-05-19T08:16:11.361Z,236.25
2018-05-19T08:17:11.238Z,236.25
2018-05-19T08:18:11.118Z,241.88
2018-05-19T08:19:10.992Z,241.88
2018-05-19T08:20:10.870Z,241.88
2018-05-19T08:21:10.746Z,247.50
2018-05-19T08:22:10.629Z,253.13
2018-05-19T08:23:10.503Z,247.50
2018-05-19T08:24:10.378Z,241.88
2018-05-19T08:25:10.257Z,236.25
2018-05-19T08:26:10.136Z,236.25
2018-05-19T08:27:10.010Z,236.25
2018-05-19T08:28:09.886Z,241.88
2018-05-19T08:29:09.769Z,247.50
2018-05-19T08:30:09.640Z,253.13
2018-05-19T08:31:09.521Z,258.75
2018-05-19T08:32:09.393Z,286.88
2018-05-19T08:33:09.273Z,292.50
2018-05-19T08:34:09.149Z,298.13
2018-05-19T08:35:09.092Z,331.88
2018-05-19T08:36:08.906Z,337.50
2018-05-19T08:37:08.782Z,354.38
2018-05-19T08:38:08.660Z,365.63
2018-05-19T08:39:08.541Z,371.25
2018-05-19T08:40:08.414Z,365.63
2018-05-19T08:41:08.298Z,354.38
2018-05-19T08:42:08.171Z,360.00
2018-05-19T08:43:08.049Z,360.00
2018-05-19T08:44:07.925Z,365.63
2018-05-19T08:45:07.804Z,382.50
2018-05-19T08:46:07.685Z,376.88
2018-05-19T08:47:07.568Z,388.13
2018-05-19T08:48:07.438Z,371.25
2018-05-19T08:49:07.316Z,376.88
2018-05-19T08:50:07.198Z,365.63
2018-05-19T08:51:07.075Z,354.38
2018-05-19T08:52:06.954Z,326.25
2018-05-19T08:53:06.835Z,315.00
2018-05-19T08:54:06.711Z,298.13
2018-05-19T08:55:06.593Z,292.50
2018-05-19T08:56:06.467Z,286.88
2018-05-19T08:57:06.350Z,298.13
2018-05-19T08:58:06.230Z,292.50
2018-05-19T08:59:06.105Z,298.13
2018-05-19T09:00:05.984Z,303.75
2018-05-19T09:01:05.865Z,309.38
2018-05-19T09:02:05.740Z,326.25
2018-05-19T09:03:05.621Z,354.38
2018-05-19T09:04:05.504Z,371.25
2018-05-19T09:05:05.383Z,388.13
2018-05-19T09:06:05.260Z,410.63
2018-05-19T09:07:05.139Z,410.63
2018-05-19T09:08:05.019Z,405.00
2018-05-19T09:09:04.895Z,416.25
2018-05-19T09:10:04.775Z,410.63
2018-05-19T09:11:04.655Z,427.50
2018-05-19T09:12:04.536Z,433.13
2018-05-19T09:13:04.415Z,444.38
2018-05-19T09:14:04.293Z,450.00
2018-05-19T09:15:04.171Z,455.63
2018-05-19T09:16:04.054Z,461.25
2018-05-19T09:17:03.932Z,461.25
2018-05-19T09:18:03.813Z,450.00
2018-05-19T09:19:03.691Z,461.25
2018-05-19T09:20:03.569Z,500.63
2018-05-19T09:21:03.452Z,461.25
2018-05-19T09:22:03.333Z,455.63
2018-05-19T09:23:03.214Z,489.38
2018-05-19T09:24:03.091Z,489.38
2018-05-19T09:25:02.974Z,472.50
2018-05-19T09:26:02.851Z,472.50
2018-05-19T09:27:02.732Z,472.50
2018-05-19T09:28:02.611Z,483.75
2018-05-19T09:29:02.497Z,483.75
2018-05-19T09:30:02.371Z,472.50
2018-05-19T09:31:02.251Z,455.63
2018-05-19T09:32:02.132Z,450.00
2018-05-19T09:33:02.016Z,444.38
2018-05-19T09:34:01.893Z,427.50
2018-05-19T09:35:01.773Z,421.88
2018-05-19T09:36:01.652Z,416.25
2018-05-19T09:37:01.534Z,416.25
2018-05-19T09:38:01.412Z,410.63
2018-05-19T09:39:01.295Z,410.63
2018-05-19T09:40:01.177Z,410.63
2018-05-19T09:41:01.054Z,410.63
2018-05-19T09:42:00.939Z,410.63
2018-05-19T09:43:00.817Z,416.25
2018-05-19T09:44:00.694Z,416.25
2018-05-19T09:45:00.574Z,427.50
2018-05-19T09:46:00.455Z,438.75
2018-05-19T09:47:00.333Z,444.38
2018-05-19T09:48:00.214Z,450.00
2018-05-19T09:49:00.095Z,461.25
2018-05-19T09:49:59.974Z,472.50
2018-05-19T09:50:59.855Z,472.50
2018-05-19T09:51:59.738Z,478.13
2018-05-19T09:52:59.681Z,483.75
2018-05-19T09:53:59.495Z,489.38
2018-05-19T09:54:59.377Z,483.75
2018-05-19T09:55:59.259Z,495.00
2018-05-19T09:56:59.139Z,500.63
2018-05-19T09:57:59.019Z,511.88
2018-05-19T09:58:58.901Z,506.25
2018-05-19T09:59:58.779Z,506.25
2018-05-19T10:00:58.662Z,495.00
2018-05-19T10:01:58.544Z,489.38
2018-05-19T10:02:58.425Z,483.75
2018-05-19T10:03:58.304Z,483.75
2018-05-19T10:04:58.221Z,489.38
2018-05-19T10:05:58.064Z,489.38
2018-05-19T10:06:57.945Z,495.00
2018-05-19T10:07:57.825Z,483.75
2018-05-19T10:08:57.704Z,472.50
2018-05-19T10:09:57.585Z,455.63
2018-05-19T10:10:57.462Z,438.75
2018-05-19T10:11:57.341Z,416.25
2018-05-19T10:12:57.223Z,399.38
2018-05-19T10:13:57.104Z,393.75
2018-05-19T10:14:56.985Z,388.13
2018-05-19T10:15:56.868Z,388.13
2018-05-19T10:16:56.742Z,393.75
2018-05-19T10:17:56.622Z,399.38
2018-05-19T10:18:56.503Z,405.00
2018-05-19T10:19:56.380Z,416.25
2018-05-19T10:20:56.262Z,427.50
2018-05-19T10:21:56.140Z,438.75
2018-05-19T10:22:56.060Z,444.38
2018-05-19T10:23:55.897Z,455.63
2018-05-19T10:24:55.780Z,461.25
2018-05-19T10:25:55.657Z,461.25
2018-05-19T10:26:55.539Z,455.63
2018-05-19T10:27:55.416Z,444.38
2018-05-19T10:28:55.298Z,438.75
2018-05-19T10:29:55.178Z,433.13
2018-05-19T10:30:55.057Z,438.75
2018-05-19T10:31:54.935Z,450.00
2018-05-19T10:32:54.813Z,472.50
2018-05-19T10:33:54.697Z,495.00
2018-05-19T10:34:54.572Z,523.13
2018-05-19T10:35:54.451Z,540.00
2018-05-19T10:36:54.333Z,568.13
2018-05-19T10:37:54.219Z,573.75
2018-05-19T10:38:54.097Z,568.13
2018-05-19T10:39:53.970Z,562.50
2018-05-19T10:40:53.849Z,551.25
2018-05-19T10:41:53.785Z,562.50
2018-05-19T10:42:53.610Z,568.13
2018-05-19T10:43:53.491Z,579.38
2018-05-19T10:44:53.367Z,579.38
2018-05-19T10:45:53.247Z,562.50
2018-05-19T10:46:53.129Z,528.75
2018-05-19T10:47:53.006Z,466.88
2018-05-19T10:48:52.890Z,421.88
2018-05-19T10:49:52.767Z,371.25
2018-05-19T10:50:52.649Z,354.38
2018-05-19T10:51:52.527Z,337.50
2018-05-19T10:52:52.407Z,309.38
2018-05-19T10:53:52.291Z,275.63
2018-05-19T10:54:52.165Z,253.13
2018-05-19T10:55:52.046Z,225.00
2018-05-19T10:56:51.927Z,202.50
2018-05-19T10:57:51.806Z,174.38
2018-05-19T10:58:51.686Z,157.50
2018-05-19T10:59:51.563Z,146.25
2018-05-19T11:00:51.443Z,135.00
2018-05-19T11:01:51.323Z,135.00
2018-05-19T11:02:51.201Z,135.00
2018-05-19T11:03:51.081Z,129.38
2018-05-19T11:04:50.959Z,118.13
2018-05-19T11:05:50.838Z,123.75
2018-05-19T11:06:50.719Z,146.25
2018-05-19T11:07:50.595Z,168.75
2018-05-19T11:08:50.474Z,191.25
2018-05-19T11:09:50.361Z,208.13
2018-05-19T11:10:50.233Z,236.25
2018-05-19T11:11:50.108Z,258.75
2018-05-19T11:12:49.987Z,292.50
2018-05-19T11:13:49.865Z,337.50
2018-05-19T11:14:49.744Z,382.50
2018-05-19T11:15:49.621Z,416.25
2018-05-19T11:16:49.501Z,450.00
2018-05-19T11:17:49.380Z,466.88
2018-05-19T11:18:49.295Z,461.25
2018-05-19T11:19:49.136Z,455.63
2018-05-19T11:20:49.013Z,444.38
2018-05-19T11:21:48.891Z,433.13
2018-05-19T11:22:48.768Z,427.50
2018-05-19T11:23:48.650Z,433.13
2018-05-19T11:24:48.523Z,433.13
2018-05-19T11:25:48.410Z,421.88
2018-05-19T11:26:48.282Z,416.25
2018-05-19T11:27:48.156Z,410.63
2018-05-19T11:28:48.037Z,393.75
2018-05-19T11:29:47.913Z,376.88
2018-05-19T11:30:47.793Z,354.38
2018-05-19T11:31:47.672Z,343.13
2018-05-19T11:32:47.547Z,337.50
2018-05-19T11:33:47.430Z,331.88
2018-05-19T11:34:47.307Z,326.25
2018-05-19T11:35:47.187Z,315.00
2018-05-19T11:36:47.065Z,309.38
2018-05-19T11:37:46.942Z,303.75
2018-05-19T11:38:46.820Z,315.00
2018-05-19T11:39:46.697Z,326.25
2018-05-19T11:40:46.575Z,348.75
2018-05-19T11:41:46.455Z,371.25
2018-05-19T11:42:46.334Z,405.00
2018-05-19T11:43:46.210Z,433.13
2018-05-19T11:44:46.091Z,489.38
2018-05-19T11:45:45.965Z,545.63
2018-05-19T11:46:45.848Z,579.38
2018-05-19T11:47:45.723Z,601.88
2018-05-19T11:48:45.602Z,607.50
2018-05-19T11:49:45.480Z,618.75
2018-05-19T11:50:45.399Z,630.00
2018-05-19T11:51:45.238Z,624.38
2018-05-19T11:52:45.117Z,590.63
2018-05-19T11:53:44.994Z,517.50
2018-05-19T11:54:44.872Z,461.25
2018-05-19T11:55:44.749Z,427.50
2018-05-19T11:56:44.631Z,399.38
2018-05-19T11:57:44.508Z,376.88
2018-05-19T11:58:44.385Z,354.38
2018-05-19T11:59:44.265Z,348.75
2018-05-19T12:00:44.141Z,371.25
2018-05-19T12:01:44.020Z,405.00
2018-05-19T12:02:43.951Z,444.38
2018-05-19T12:03:43.774Z,483.75
2018-05-19T12:04:43.657Z,495.00
2018-05-19T12:05:43.612Z,495.00
2018-05-19T12:06:43.412Z,478.13
2018-05-19T12:07:43.286Z,461.25
2018-05-19T12:08:43.164Z,450.00
2018-05-19T12:09:43.043Z,472.50
2018-05-19T12:10:42.922Z,500.63
2018-05-19T12:11:42.831Z,500.63
2018-05-19T12:12:42.677Z,483.75
2018-05-19T12:13:42.555Z,466.88
2018-05-19T12:14:42.432Z,483.75
2018-05-19T12:15:42.308Z,483.75
2018-05-19T12:16:42.185Z,495.00
2018-05-19T12:17:42.065Z,500.63
2018-05-19T12:18:41.942Z,511.88
2018-05-19T12:19:41.818Z,534.38
2018-05-19T12:20:41.695Z,579.38
2018-05-19T12:21:41.573Z,568.13
2018-05-19T12:22:41.544Z,495.00
2018-05-19T12:23:41.327Z,444.38
2018-05-19T12:24:41.205Z,388.13
2018-05-19T12:25:41.083Z,348.75
2018-05-19T12:26:40.959Z,326.25
2018-05-19T12:27:40.840Z,303.75
2018-05-19T12:28:40.713Z,286.88
2018-05-19T12:29:40.594Z,281.25
2018-05-19T12:30:40.472Z,275.63
2018-05-19T12:31:40.349Z,281.25
2018-05-19T12:32:40.228Z,286.88
2018-05-19T12:33:40.105Z,298.13
2018-05-19T12:34:39.983Z,309.38
2018-05-19T12:35:39.856Z,309.38
2018-05-19T12:36:39.732Z,309.38
2018-05-19T12:37:39.611Z,309.38
2018-05-19T12:38:39.488Z,309.38
2018-05-19T12:39:39.364Z,315.00
2018-05-19T12:40:39.242Z,331.88
2018-05-19T12:41:39.120Z,354.38
2018-05-19T12:42:38.996Z,382.50
2018-05-19T12:43:38.874Z,427.50
2018-05-19T12:44:38.753Z,466.88